Dakar, Senegal

10:29 AM GMT on August 30, 2015 (GMT +0000)
Ngor Almadies | | Change Station
CLOSE
Current Station
Personal Weather Station
Location: Dakar, DAKAR
Elevation: 46 ft
Nearby Weather Stations

Elev 46 ft 14.74 °N, 17.51 °W | Updated 3 seconds ago

Scattered Clouds
Scattered Clouds
84.9 °F
Feels Like 96 °F
N
10.0
Wind Variable Wind from SSE
Gusts 17.0 mph

Today
High -- | Low -- °F
--% Chance of Precip.
Yesterday
High -- | Low -- °F
Precip. -- in
6:57 AM 7:23 PM
Full, 99% visible
Pressure 29.89 in
Visibility 6.2 miles
Clouds Mostly Cloudy 800 ft
Scattered Clouds 13000 ft
Heat Index 96 °F
Dew Point 78 °F
Humidity 79%
Rainfall 0.01 in
Snow Depth Not available.
UV 5 out of 12
Pollen Not available.
Air Quality Not available.
Flu Activity Not available.
METAR GOOY 301000Z 12012KT 090V150 9999 BKN008 SCT130 28/25 Q1012 NOSIG
Pressure 29.89 in
Visibility 6.2 miles
Clouds Mostly Cloudy 800 ft
Scattered Clouds 13000 ft
Heat Index 96 °F
Dew Point 78 °F
Humidity 79%
Rainfall 0.01 in
Snow Depth Not available.
UV 5 out of 12
Pollen Not available.
Air Quality Not available.
Flu Activity Not available.
METAR GOOY 301000Z 12012KT 090V150 9999 BKN008 SCT130 28/25 Q1012 NOSIG

10-Day Weather Forecast

×

Almanac

Astronomy

Aug. 30, 2015 Rise Set
Actual Time
Civil Twilight
Nautical Twilight
Astronomical Twilight
Moon
Length of Visible Light
Length of Day
Tomorrow will be .
, % of the Moon is Illuminated

Today's Extremes

Country Highs Country Lows

Community

WunderPhotos

Upload Photos

1,850,923 photos uploaded!

WunderBlogs® & News

Nearby

Air Quality

  Air Quality AQ Index Pollutant
Not available.

Snow Depth

Station Depth Elevation

Earthquake Activity

City Distance Mag. Time & Date
Minimum magnitude displayed is 2.5.

Coastal Water Temperatures

Place Temperature

Stations

Nearby Weather Stations

Station Location Temp. Windchill Dew Point Humidity Wind Precip. Elev Updated Type